Time;durP1;ratioP1;P1;durP2;ratioP2;P2;SDS_P1;SDS_P2;PMS_P1;PMS_P2;Temp;Humidity;BMP_temperature;BMP_pressure;BME280_temperature;BME280_humidity;BME280_pressure;Samples;Min_cycle;Max_cycle;Signal;HPM_P1;HPM_P2
2023/07/05 00:03:04;;;;;;;23.03;6.10;;;14.40;99.90;;;;;;1923691;73;25721;-88
2023/07/05 03:14:41;;;;;;;25.47;4.10;;;13.60;99.90;;;;;;1873488;74;25296;-88
2023/07/05 03:22:14;;;;;;;21.87;3.60;;;13.60;99.90;;;;;;1957349;72;25265;-88
2023/07/05 03:46:05;;;;;;;23.63;4.10;;;13.50;99.90;;;;;;1986494;71;25279;-88
2023/07/05 04:57:42;;;;;;;16.20;3.27;;;17.50;99.90;;;;;;1930455;73;25646;-88
2023/07/05 05:34:56;;;;;;;11.87;2.67;;;17.20;99.90;;;;;;1915231;74;25248;-89
2023/07/05 05:37:45;;;;;;;10.40;2.77;;;17.50;99.90;;;;;;1906487;74;25755;-89
2023/07/05 05:44:20;;;;;;;11.57;2.50;;;17.90;99.90;;;;;;1982331;71;26866;-89
2023/07/05 05:50:30;;;;;;;17.10;2.50;;;18.00;99.90;;;;;;1997155;71;26859;-89
2023/07/05 05:53:20;;;;;;;14.23;2.40;;;17.50;99.90;;;;;;1956076;72;25733;-89
2023/07/05 05:56:09;;;;;;;7.77;2.57;;;17.60;99.90;;;;;;2034848;69;25221;-89
2023/07/05 06:01:43;;;;;;;9.63;2.67;;;17.80;99.90;;;;;;1985274;71;27103;-88
2023/07/05 06:28:39;;;;;;;11.70;2.63;;;17.90;99.90;;;;;;1870401;75;27065;-88
2023/07/05 06:34:43;;;;;;;17.13;3.10;;;18.10;99.90;;;;;;1976508;71;26361;-89
2023/07/05 06:37:33;;;;;;;7.07;2.10;;;18.00;99.90;;;;;;2003262;70;25213;-89
2023/07/05 06:40:22;;;;;;;11.80;2.40;;;18.20;99.90;;;;;;1993807;71;25290;-88
2023/07/05 06:45:53;;;;;;;16.03;2.40;;;17.80;99.90;;;;;;1944570;72;26637;-90
2023/07/05 06:48:42;;;;;;;10.80;2.50;;;18.00;99.90;;;;;;1940165;72;25887;-89
2023/07/05 06:51:31;;;;;;;11.80;3.00;;;18.10;99.90;;;;;;1939896;72;25288;-89
2023/07/05 06:54:21;;;;;;;17.73;2.80;;;17.70;99.90;;;;;;1939120;72;25215;-89
2023/07/05 07:14:08;;;;;;;9.43;2.53;;;18.70;99.90;;;;;;2061934;68;26690;-88
2023/07/05 07:16:57;;;;;;;12.30;2.30;;;18.50;99.90;;;;;;2009280;71;25165;-89
2023/07/05 07:19:46;;;;;;;12.87;2.30;;;18.50;99.90;;;;;;2014527;71;25550;-88
2023/07/05 07:22:34;;;;;;;9.43;2.40;;;18.40;99.90;;;;;;2008729;71;25811;-89
2023/07/05 07:28:13;;;;;;;6.93;2.30;;;18.40;99.90;;;;;;1948540;72;27491;-89
2023/07/05 07:31:10;;;;;;;13.07;2.53;;;18.30;99.90;;;;;;1927312;72;25202;-89
2023/07/05 07:34:00;;;;;;;14.33;2.37;;;18.30;99.90;;;;;;1934612;73;25724;-89
2023/07/05 07:36:49;;;;;;;11.07;2.50;;;18.30;99.90;;;;;;1931748;72;25213;-89
2023/07/05 07:39:38;;;;;;;14.37;2.70;;;18.00;99.90;;;;;;1944229;72;25235;-89
2023/07/05 07:42:26;;;;;;;12.13;2.20;;;18.10;99.90;;;;;;1924145;73;25320;-88
2023/07/05 07:47:56;;;;;;;15.27;2.73;;;18.20;99.90;;;;;;1952816;71;27551;-89
2023/07/05 07:50:50;;;;;;;12.03;2.40;;;17.80;99.90;;;;;;1937390;73;25231;-89
2023/07/05 07:53:39;;;;;;;13.83;2.63;;;17.90;99.90;;;;;;1934626;73;25215;-89
2023/07/05 07:56:28;;;;;;;11.10;2.53;;;18.10;99.90;;;;;;1913614;73;25789;-88
2023/07/05 07:59:16;;;;;;;11.10;2.60;;;17.70;99.90;;;;;;1896021;75;25231;-88
2023/07/05 08:02:06;;;;;;;9.97;2.20;;;17.40;99.90;;;;;;1875237;75;25311;-88
2023/07/05 08:04:56;;;;;;;11.57;2.40;;;17.70;99.90;;;;;;1899749;75;25263;-88
2023/07/05 08:07:44;;;;;;;10.23;2.57;;;18.10;99.90;;;;;;1889550;74;25732;-89
2023/07/05 08:10:33;;;;;;;11.60;2.30;;;18.10;99.90;;;;;;1883931;75;25225;-88
2023/07/05 08:13:22;;;;;;;8.87;2.43;;;18.50;99.90;;;;;;1890495;75;25230;-89
2023/07/05 08:16:11;;;;;;;11.73;2.37;;;18.40;99.90;;;;;;1902445;75;25223;-89
2023/07/05 08:19:00;;;;;;;13.57;2.43;;;18.30;99.90;;;;;;1878324;74;25256;-89
2023/07/05 08:21:49;;;;;;;7.30;2.20;;;18.60;99.90;;;;;;1905965;73;25297;-88
2023/07/05 08:24:38;;;;;;;10.00;2.40;;;18.90;99.90;;;;;;1881076;75;25330;-88
2023/07/05 08:27:27;;;;;;;9.90;2.43;;;18.60;99.90;;;;;;1888055;75;25350;-88
2023/07/05 08:34:58;;;;;;;13.83;2.60;;;18.40;99.90;;;;;;1935888;72;26786;-88
2023/07/05 08:37:48;;;;;;;12.00;2.37;;;18.50;99.90;;;;;;1924975;73;25213;-88
2023/07/05 08:40:42;;;;;;;13.97;2.63;;;18.60;99.90;;;;;;1908588;75;25777;-89
2023/07/05 08:47:25;;;;;;;9.97;1.87;;;18.70;99.90;;;;;;1967898;72;28138;-88
2023/07/05 08:50:18;;;;;;;9.20;2.17;;;18.90;99.90;;;;;;1966931;72;25796;-87
2023/07/05 08:53:11;;;;;;;14.20;2.50;;;18.60;99.90;;;;;;1988586;71;25249;-90
2023/07/05 08:56:04;;;;;;;9.80;2.20;;;18.50;99.90;;;;;;1951134;73;25308;-90
2023/07/05 09:01:45;;;;;;;6.80;1.80;;;18.50;99.90;;;;;;1949035;72;26909;-89
2023/07/05 09:04:34;;;;;;;8.10;2.37;;;19.30;99.90;;;;;;1938240;73;25344;-88
2023/07/05 09:07:27;;;;;;;10.83;1.93;;;19.80;99.90;;;;;;1929711;73;25232;-88
2023/07/05 09:13:11;;;;;;;7.57;1.90;;;18.80;99.90;;;;;;1944230;72;27030;-89
2023/07/05 09:16:02;;;;;;;8.30;1.90;;;18.80;99.90;;;;;;1928896;73;25240;-88
2023/07/05 09:18:58;;;;;;;8.63;1.70;;;19.10;99.90;;;;;;1931047;73;25778;-89
2023/07/05 09:41:57;;;;;;;10.50;2.00;;;19.30;99.90;;;;;;1950823;72;26917;-88
2023/07/05 09:49:31;;;;;;;6.10;1.67;;;19.40;99.90;;;;;;1982115;71;27169;-88
2023/07/05 09:52:23;;;;;;;3.70;1.90;;;19.00;99.90;;;;;;1963729;72;26811;-88
2023/07/05 09:55:16;;;;;;;6.73;1.77;;;19.10;99.90;;;;;;2051344;69;25208;-88
2023/07/05 09:58:13;;;;;;;5.70;1.70;;;19.40;99.90;;;;;;2040825;69;25231;-88
2023/07/05 10:01:04;;;;;;;5.80;1.70;;;19.20;99.90;;;;;;2055058;69;25754;-88
2023/07/05 10:03:57;;;;;;;5.43;1.70;;;19.30;99.90;;;;;;2042756;69;25266;-88
2023/07/05 10:09:41;;;;;;;6.33;1.77;;;20.00;99.90;;;;;;1945945;72;26870;-89
2023/07/05 10:15:21;;;;;;;8.87;1.80;;;19.80;99.90;;;;;;1936302;72;27063;-89
2023/07/05 10:20:58;;;;;;;7.57;1.50;;;19.50;99.90;;;;;;1961643;72;27064;-88
2023/07/05 10:23:48;;;;;;;3.63;1.53;;;19.70;99.90;;;;;;1891414;75;25221;-88
2023/07/05 10:26:41;;;;;;;6.43;1.50;;;20.00;99.90;;;;;;1897210;75;25258;-88
2023/07/05 10:29:28;;;;;;;7.93;1.40;;;20.00;99.90;;;;;;1865197;76;25233;-89
2023/07/05 10:32:20;;;;;;;6.97;1.57;;;20.00;99.90;;;;;;1903721;75;25169;-88
2023/07/05 10:35:19;;;;;;;5.03;1.60;;;20.00;99.90;;;;;;1900873;75;25336;-88
2023/07/05 10:38:18;;;;;;;2.53;1.43;;;20.00;99.90;;;;;;1882866;75;25665;-88
2023/07/05 10:44:02;;;;;;;7.87;1.77;;;19.80;99.90;;;;;;1936373;73;26900;-89
2023/07/05 10:46:51;;;;;;;5.33;1.50;;;19.20;99.90;;;;;;1910118;75;25357;-88
2023/07/05 10:49:43;;;;;;;4.00;1.40;;;19.40;99.90;;;;;;1902853;74;25208;-89
2023/07/05 10:52:33;;;;;;;3.80;1.40;;;19.70;99.90;;;;;;1909846;75;25241;-89
2023/07/05 10:55:25;;;;;;;4.70;1.30;;;19.80;99.90;;;;;;1911087;75;25495;-89
2023/07/05 10:58:18;;;;;;;9.43;1.63;;;19.80;99.90;;;;;;1904085;74;25235;-89
2023/07/05 11:01:13;;;;;;;4.10;1.40;;;19.90;99.90;;;;;;1908633;73;25723;-88
2023/07/05 11:04:05;;;;;;;5.10;1.50;;;20.00;99.90;;;;;;1915271;74;25772;-89
2023/07/05 11:10:41;;;;;;;6.43;1.57;;;20.00;99.90;;;;;;1973501;71;26324;-88
2023/07/05 11:13:30;;;;;;;9.37;1.27;;;19.90;99.90;;;;;;1922432;73;25293;-88
2023/07/05 11:16:22;;;;;;;6.60;1.60;;;19.90;99.90;;;;;;2009050;70;25282;-88
2023/07/05 11:19:16;;;;;;;2.17;1.30;;;19.90;99.90;;;;;;1999507;70;25205;-89
2023/07/05 11:24:56;;;;;;;7.47;1.57;;;19.90;99.90;;;;;;1953870;72;26972;-89
2023/07/05 11:30:44;;;;;;;3.57;1.20;;;19.60;99.90;;;;;;1953854;71;27003;-89
2023/07/05 11:33:35;;;;;;;6.53;1.50;;;19.80;99.90;;;;;;1933356;73;25224;-88
2023/07/05 11:36:32;;;;;;;4.73;1.40;;;19.60;99.90;;;;;;1928853;72;25221;-88
2023/07/05 11:39:34;;;;;;;3.70;1.13;;;19.70;99.90;;;;;;1939351;72;25204;-88
2023/07/05 11:45:46;;;;;;;10.73;1.37;;;19.90;99.90;;;;;;1947513;72;26908;-88
2023/07/05 11:48:43;;;;;;;5.17;1.20;;;19.70;99.90;;;;;;1929542;73;25235;-87
2023/07/05 11:51:33;;;;;;;4.90;1.30;;;19.70;99.90;;;;;;1932537;72;25207;-87
2023/07/05 11:54:23;;;;;;;1.50;1.20;;;20.00;99.90;;;;;;1926383;73;25171;-88
2023/07/05 11:57:13;;;;;;;4.67;1.20;;;20.00;99.90;;;;;;1937869;72;25166;-89
2023/07/05 12:00:12;;;;;;;4.90;1.20;;;19.80;99.90;;;;;;1928151;73;25720;-88
2023/07/05 12:03:06;;;;;;;5.63;1.27;;;19.60;99.90;;;;;;1942531;72;25249;-88
2023/07/05 12:05:59;;;;;;;1.97;1.40;;;19.80;99.90;;;;;;1919550;72;25715;-88
2023/07/05 12:08:50;;;;;;;4.33;1.30;;;19.80;99.90;;;;;;1916826;73;25260;-88
2023/07/05 12:11:40;;;;;;;2.10;1.13;;;19.70;99.90;;;;;;1937939;72;25198;-88
2023/07/05 12:14:29;;;;;;;2.43;1.30;;;19.50;99.90;;;;;;1928854;73;25243;-90
2023/07/05 12:20:07;;;;;;;2.87;1.13;;;19.50;99.90;;;;;;1943638;72;27442;-88
2023/07/05 12:22:56;;;;;;;3.47;1.30;;;19.60;99.90;;;;;;1945985;73;25223;-89
2023/07/05 12:25:50;;;;;;;8.20;1.47;;;19.80;99.90;;;;;;1954486;72;25233;-90
2023/07/05 12:28:41;;;;;;;3.93;1.30;;;19.80;99.90;;;;;;1935992;73;25243;-89
2023/07/05 12:31:30;;;;;;;6.80;1.40;;;19.70;99.90;;;;;;1924775;73;25240;-89
2023/07/05 12:34:20;;;;;;;2.80;1.40;;;19.60;99.90;;;;;;1929424;73;25716;-89
2023/07/05 12:40:21;;;;;;;3.97;1.50;;;19.70;99.90;;;;;;1963426;72;26965;-89
2023/07/05 12:43:14;;;;;;;4.17;1.40;;;19.70;99.90;;;;;;1908411;75;25177;-88
2023/07/05 12:59:38;;;;;;;4.27;1.40;;;19.90;99.90;;;;;;1875131;75;27140;-88
2023/07/05 13:15:56;;;;;;;5.90;1.60;;;18.70;99.90;;;;;;1874251;73;27655;-90
2023/07/05 14:05:32;;;;;;;5.10;1.47;;;20.30;99.90;;;;;;1937305;71;26376;-89
2023/07/05 14:08:21;;;;;;;6.37;1.70;;;20.40;99.90;;;;;;1954886;72;25836;-89
2023/07/05 14:14:07;;;;;;;3.57;1.60;;;20.30;99.90;;;;;;1941347;72;26938;-89
2023/07/05 14:16:56;;;;;;;3.93;1.60;;;20.20;99.90;;;;;;1920295;72;25637;-89
2023/07/05 14:19:44;;;;;;;7.37;1.73;;;20.10;99.90;;;;;;1941389;73;25890;-89
2023/07/05 14:22:32;;;;;;;4.40;1.70;;;19.80;99.90;;;;;;1930876;72;25440;-89
2023/07/05 14:29:05;;;;;;;3.03;1.30;;;19.60;99.90;;;;;;1978961;71;26307;-89
2023/07/05 14:31:54;;;;;;;3.40;1.40;;;19.70;99.90;;;;;;1916691;73;25244;-90
2023/07/05 14:34:43;;;;;;;2.13;1.43;;;19.70;99.90;;;;;;1919533;73;25237;-89
2023/07/05 14:41:21;;;;;;;2.83;1.57;;;19.60;99.90;;;;;;1955725;71;27603;-89
2023/07/05 15:14:21;;;;;;;2.40;1.40;;;19.80;99.90;;;;;;1866063;75;27711;-89
2023/07/05 15:32:59;;;;;;;5.33;1.90;;;19.90;99.90;;;;;;1927358;72;27235;-89
2023/07/05 15:35:51;;;;;;;5.77;1.70;;;19.80;99.90;;;;;;1917579;74;25318;-90
2023/07/05 15:42:23;;;;;;;5.43;1.87;;;19.70;99.90;;;;;;1921606;72;26743;-89
2023/07/05 15:45:13;;;;;;;5.27;1.80;;;19.70;99.90;;;;;;1961395;72;25628;-88
2023/07/05 15:48:02;;;;;;;2.93;1.70;;;19.70;99.90;;;;;;1953569;72;25727;-88
2023/07/05 15:50:54;;;;;;;2.77;1.60;;;19.70;99.90;;;;;;1950250;72;25333;-89
2023/07/05 15:53:44;;;;;;;3.33;1.97;;;19.60;99.90;;;;;;1953233;72;25201;-89
2023/07/05 15:59:25;;;;;;;4.50;1.63;;;19.60;99.90;;;;;;1960352;72;27334;-89
2023/07/05 16:02:15;;;;;;;2.43;1.50;;;19.60;99.90;;;;;;1952181;72;25266;-89
2023/07/05 16:05:06;;;;;;;4.43;1.80;;;19.60;99.90;;;;;;1935374;72;25171;-89
2023/07/05 16:07:54;;;;;;;7.27;1.70;;;19.60;99.90;;;;;;1942129;72;25229;-89
2023/07/05 16:13:26;;;;;;;9.07;1.60;;;19.60;99.90;;;;;;1949697;72;27590;-89
2023/07/05 16:16:15;;;;;;;5.33;1.60;;;19.60;99.90;;;;;;1927768;74;25241;-89
2023/07/05 16:19:03;;;;;;;5.57;2.00;;;19.70;99.90;;;;;;1942437;73;25894;-89
2023/07/05 16:21:52;;;;;;;5.23;1.63;;;19.70;99.90;;;;;;1932319;74;25354;-89
2023/07/05 16:24:41;;;;;;;3.67;1.40;;;19.70;99.90;;;;;;1933632;73;25739;-87
2023/07/05 16:27:29;;;;;;;5.40;1.73;;;19.60;99.90;;;;;;1935533;72;25216;-89
2023/07/05 16:30:18;;;;;;;3.00;1.60;;;19.70;99.90;;;;;;1936682;72;25634;-89
2023/07/05 16:33:08;;;;;;;8.70;2.17;;;19.50;99.90;;;;;;1913272;72;25293;-89
2023/07/05 16:35:59;;;;;;;6.10;1.90;;;19.50;99.90;;;;;;1940489;72;25211;-89
2023/07/05 17:19:23;;;;;;;4.87;1.87;;;18.40;99.90;;;;;;1919819;74;27249;-88
2023/07/05 17:25:04;;;;;;;6.93;1.80;;;18.40;99.90;;;;;;1942112;72;26848;-89
2023/07/05 17:27:53;;;;;;;6.00;1.80;;;18.50;99.90;;;;;;1930529;73;25203;-89
2023/07/05 17:49:53;;;;;;;2.53;2.03;;;18.00;99.90;;;;;;2000057;69;26562;-90
2023/07/05 18:13:38;;;;;;;10.53;2.57;;;17.30;99.90;;;;;;1977320;71;26355;-88
2023/07/05 18:16:29;;;;;;;5.50;2.40;;;17.00;99.90;;;;;;1966260;71;26405;-88
2023/07/05 18:19:17;;;;;;;5.87;2.57;;;17.00;99.90;;;;;;2040210;68;25149;-88
2023/07/05 18:22:07;;;;;;;8.50;2.80;;;17.00;99.90;;;;;;2051260;68;25224;-88
2023/07/05 18:24:56;;;;;;;11.27;3.20;;;16.90;99.90;;;;;;2047847;69;25142;-88
2023/07/05 18:27:45;;;;;;;7.10;2.93;;;16.70;99.90;;;;;;2057717;69;25232;-88
2023/07/05 18:30:33;;;;;;;6.50;2.77;;;16.60;99.90;;;;;;1997738;70;25249;-88
2023/07/05 18:33:22;;;;;;;8.20;3.60;;;16.40;99.90;;;;;;2040387;69;25299;-88
2023/07/05 18:36:12;;;;;;;5.70;3.10;;;16.30;99.90;;;;;;2044405;68;25126;-88
2023/07/05 18:39:01;;;;;;;7.20;3.10;;;16.30;99.90;;;;;;1969165;71;25162;-88
2023/07/05 18:41:51;;;;;;;7.83;2.93;;;16.20;99.90;;;;;;2062888;69;25740;-88
2023/07/05 18:44:41;;;;;;;3.50;2.93;;;16.30;99.90;;;;;;2047897;69;25688;-88
2023/07/05 18:53:21;;;;;;;7.67;3.63;;;16.30;99.90;;;;;;1938530;72;26812;-88
2023/07/05 18:58:59;;;;;;;6.17;3.30;;;16.20;99.90;;;;;;1900710;74;26991;-88
2023/07/05 19:01:48;;;;;;;7.50;3.90;;;16.30;99.90;;;;;;1863501;76;25749;-88
2023/07/05 19:04:37;;;;;;;5.67;3.30;;;16.30;99.90;;;;;;1868863;76;25336;-88
2023/07/05 19:07:26;;;;;;;9.70;3.40;;;16.30;99.90;;;;;;1870474;75;25170;-88
2023/07/05 19:10:17;;;;;;;7.20;3.63;;;16.30;99.90;;;;;;1870226;75;25415;-88
2023/07/05 19:13:06;;;;;;;7.30;3.20;;;16.30;99.90;;;;;;1866152;75;25675;-88
2023/07/05 19:15:55;;;;;;;15.00;3.37;;;16.40;99.90;;;;;;1858484;75;25837;-88
2023/07/05 19:18:44;;;;;;;6.67;3.50;;;16.40;99.90;;;;;;1872593;75;26671;-88
2023/07/05 19:21:33;;;;;;;6.90;3.47;;;16.30;99.90;;;;;;1868346;76;25171;-88
2023/07/05 19:54:18;;;;;;;4.87;3.23;;;16.60;99.90;;;;;;1954369;72;27292;-89
2023/07/05 19:57:07;;;;;;;5.97;3.60;;;16.50;99.90;;;;;;1940595;73;25219;-89
2023/07/05 19:59:56;;;;;;;6.17;3.57;;;16.50;99.90;;;;;;1936427;72;25206;-89
2023/07/05 20:02:45;;;;;;;6.70;3.87;;;16.40;99.90;;;;;;1928433;72;25203;-89
2023/07/05 20:05:35;;;;;;;5.17;3.90;;;16.30;99.90;;;;;;1925958;73;25248;-89
2023/07/05 20:08:25;;;;;;;6.97;4.10;;;16.30;99.90;;;;;;1928086;72;25754;-89
2023/07/05 20:24:39;;;;;;;11.10;5.07;;;16.30;99.90;;;;;;1928524;72;27155;-87
2023/07/05 20:27:28;;;;;;;9.97;5.37;;;15.60;99.90;;;;;;1905069;73;25243;-87
2023/07/05 20:30:17;;;;;;;11.07;6.20;;;15.40;99.90;;;;;;1865410;76;25171;-87
2023/07/05 20:33:07;;;;;;;11.03;6.70;;;15.20;99.90;;;;;;1850678;76;25300;-87
2023/07/05 20:35:58;;;;;;;12.60;7.00;;;15.20;99.90;;;;;;1913428;73;25620;-87
2023/07/05 20:41:27;;;;;;;13.27;6.90;;;15.20;99.90;;;;;;1924001;72;27098;-87
2023/07/05 20:44:16;;;;;;;12.20;6.53;;;15.30;99.90;;;;;;1840589;76;25291;-87
2023/07/05 20:49:50;;;;;;;11.70;7.13;;;15.40;99.90;;;;;;1923138;72;27566;-87
2023/07/05 20:55:34;;;;;;;12.40;6.93;;;15.30;99.90;;;;;;1948653;72;26990;-87
2023/07/05 20:58:23;;;;;;;17.80;7.20;;;15.40;99.90;;;;;;1931380;73;25786;-86
2023/07/05 21:01:15;;;;;;;12.50;6.40;;;15.40;99.90;;;;;;1931652;72;25184;-86
2023/07/05 21:04:04;;;;;;;13.73;6.73;;;15.30;99.90;;;;;;1938517;72;25302;-86
2023/07/05 21:06:54;;;;;;;13.90;6.17;;;15.30;99.90;;;;;;1936951;72;25372;-86
2023/07/05 21:09:44;;;;;;;13.77;6.17;;;15.20;99.90;;;;;;1941464;72;25164;-87
2023/07/05 21:12:33;;;;;;;10.70;5.97;;;15.20;99.90;;;;;;1936328;73;25323;-87
2023/07/05 21:15:23;;;;;;;14.00;6.60;;;15.00;99.90;;;;;;1936086;73;25635;-87
2023/07/05 21:20:51;;;;;;;11.60;6.67;;;14.90;99.90;;;;;;1927689;72;26925;-87
2023/07/05 21:26:27;;;;;;;16.07;6.40;;;14.90;99.90;;;;;;1945304;72;27489;-86
2023/07/05 21:32:35;;;;;;;10.90;5.10;;;14.90;99.90;;;;;;1975795;71;27041;-87
2023/07/05 21:35:25;;;;;;;12.93;6.57;;;14.90;99.90;;;;;;2017662;70;25598;-87
2023/07/05 21:38:16;;;;;;;15.17;6.53;;;14.90;99.90;;;;;;2000242;70;25253;-87
2023/07/05 21:43:47;;;;;;;12.27;6.17;;;14.90;99.90;;;;;;1928869;72;27810;-87
2023/07/05 21:49:25;;;;;;;14.40;6.13;;;15.00;99.90;;;;;;1943017;72;27515;-87
2023/07/05 21:52:13;;;;;;;11.87;5.83;;;14.90;99.90;;;;;;1921183;73;25670;-87
2023/07/05 21:55:03;;;;;;;14.80;5.67;;;14.90;99.90;;;;;;1919401;73;25745;-88
2023/07/05 21:57:51;;;;;;;13.57;6.30;;;14.90;99.90;;;;;;1929091;73;25691;-88
2023/07/05 22:03:20;;;;;;;8.33;5.63;;;15.00;99.90;;;;;;1926021;72;27087;-87
2023/07/05 22:06:09;;;;;;;8.73;5.10;;;15.00;99.90;;;;;;1906424;73;25228;-87
2023/07/05 22:11:40;;;;;;;15.77;5.60;;;15.10;99.90;;;;;;1926536;72;28305;-87
2023/07/05 22:14:29;;;;;;;7.40;4.67;;;15.10;99.90;;;;;;1911352;73;25726;-86
2023/07/05 22:17:17;;;;;;;12.03;4.40;;;15.10;99.90;;;;;;1898617;73;25255;-86
2023/07/05 22:20:12;;;;;;;8.47;4.83;;;15.20;99.90;;;;;;1877266;75;25241;-87
2023/07/05 22:22:59;;;;;;;9.67;4.53;;;15.20;99.90;;;;;;1835382;76;25278;-87
2023/07/05 22:25:48;;;;;;;9.47;4.40;;;15.20;99.90;;;;;;1910084;73;25246;-87
2023/07/05 22:28:37;;;;;;;10.10;4.70;;;15.20;99.90;;;;;;1914844;74;25214;-87
2023/07/05 22:31:27;;;;;;;8.57;4.10;;;15.20;99.90;;;;;;1876312;75;25241;-87
2023/07/05 22:34:16;;;;;;;11.47;5.00;;;15.20;99.90;;;;;;1847368;76;25734;-87
2023/07/05 22:37:07;;;;;;;10.60;4.90;;;15.30;99.90;;;;;;1912517;73;25233;-87
2023/07/05 22:39:56;;;;;;;8.93;4.57;;;15.30;99.90;;;;;;1873393;75;25281;-88
2023/07/05 22:42:45;;;;;;;9.53;4.80;;;15.30;99.90;;;;;;1837708;76;25363;-87
2023/07/05 22:45:35;;;;;;;10.10;4.90;;;15.30;99.90;;;;;;1896742;75;25225;-88
2023/07/05 22:48:26;;;;;;;10.00;4.70;;;15.30;99.90;;;;;;1889867;73;25285;-87
2023/07/05 22:51:14;;;;;;;8.10;4.17;;;15.30;99.90;;;;;;1890381;73;25242;-87
2023/07/05 22:54:03;;;;;;;8.70;4.23;;;15.30;99.90;;;;;;1885362;73;25707;-88
2023/07/05 22:56:52;;;;;;;14.50;4.80;;;15.30;99.90;;;;;;1882295;75;25280;-87
2023/07/05 22:59:44;;;;;;;5.63;3.97;;;15.30;99.90;;;;;;1890051;75;25250;-88
2023/07/05 23:05:12;;;;;;;10.73;4.97;;;15.30;99.90;;;;;;1933770;72;26997;-87
2023/07/05 23:08:01;;;;;;;9.67;4.60;;;15.30;99.90;;;;;;1909443;74;25715;-87
2023/07/05 23:11:00;;;;;;;7.10;4.70;;;15.30;99.90;;;;;;1892942;75;25357;-87
2023/07/05 23:13:47;;;;;;;9.20;4.63;;;15.30;99.90;;;;;;1908416;73;25242;-88
2023/07/05 23:16:35;;;;;;;8.40;4.50;;;15.30;99.90;;;;;;1900516;73;25776;-88
2023/07/05 23:19:26;;;;;;;8.50;4.73;;;15.30;99.90;;;;;;1904960;73;25160;-88
2023/07/05 23:22:14;;;;;;;12.17;4.50;;;15.30;99.90;;;;;;1882716;73;25293;-88
2023/07/05 23:27:44;;;;;;;8.43;4.73;;;15.30;99.90;;;;;;1926853;72;27066;-88
2023/07/05 23:30:33;;;;;;;9.97;4.37;;;15.30;99.90;;;;;;1905889;75;25664;-88
2023/07/05 23:33:22;;;;;;;9.53;4.93;;;15.30;99.90;;;;;;1908286;74;25259;-88
2023/07/05 23:36:10;;;;;;;9.37;4.30;;;15.30;99.90;;;;;;1886293;74;25251;-88
2023/07/05 23:39:00;;;;;;;7.27;3.73;;;15.30;99.90;;;;;;1893768;74;25671;-88
2023/07/05 23:44:28;;;;;;;7.40;4.20;;;15.30;99.90;;;;;;1935491;72;27722;-87
2023/07/05 23:47:16;;;;;;;8.13;4.47;;;15.30;99.90;;;;;;1920000;73;25223;-87
2023/07/05 23:50:07;;;;;;;6.13;4.07;;;15.30;99.90;;;;;;1907709;74;25238;-87
2023/07/05 23:52:58;;;;;;;7.83;4.00;;;15.30;99.90;;;;;;1863575;75;25238;-87
2023/07/05 23:55:52;;;;;;;9.00;3.60;;;15.30;99.90;;;;;;1875146;75;26061;-87
